Time;durP1;ratioP1;P1;durP2;ratioP2;P2;SDS_P1;SDS_P2;PMS_P1;PMS_P2;Temp;Humidity;BMP_temperature;BMP_pressure;BME280_temperature;BME280_humidity;BME280_pressure;Samples;Min_cycle;Max_cycle;Signal;HPM_P1;HPM_P2
2023/12/09 00:02:24;;;;;;;6.13;3.70;;;6.70;45.40;;;;;;5053732;28;20197;-52
2023/12/09 00:04:50;;;;;;;4.10;3.67;;;6.70;45.30;;;;;;5053782;28;20173;-48
2023/12/09 00:07:15;;;;;;;9.43;5.53;;;6.70;45.30;;;;;;5053539;28;20181;-49
2023/12/09 00:09:41;;;;;;;6.77;3.17;;;6.80;45.40;;;;;;5053558;28;20667;-50
2023/12/09 00:12:07;;;;;;;5.70;3.17;;;6.80;45.40;;;;;;5053928;28;20181;-53
2023/12/09 00:14:32;;;;;;;7.67;2.40;;;6.80;45.20;;;;;;5053666;28;20169;-48
2023/12/09 00:16:58;;;;;;;3.27;2.03;;;6.80;45.30;;;;;;5053416;28;20178;-51
2023/12/09 00:19:24;;;;;;;2.33;1.50;;;6.80;45.20;;;;;;5053576;28;20192;-53
2023/12/09 00:21:50;;;;;;;4.37;3.00;;;6.80;45.30;;;;;;5053246;28;20208;-50
2023/12/09 00:24:15;;;;;;;3.30;2.63;;;6.80;45.20;;;;;;5053707;28;20899;-47
2023/12/09 00:26:41;;;;;;;5.73;3.10;;;6.90;45.20;;;;;;5053333;28;20253;-53
2023/12/09 00:29:07;;;;;;;3.00;2.80;;;6.80;45.10;;;;;;5053240;28;20247;-48
2023/12/09 00:31:33;;;;;;;2.10;1.83;;;6.90;45.20;;;;;;5053271;28;20260;-53
2023/12/09 00:33:58;;;;;;;4.93;3.57;;;6.90;45.20;;;;;;5053223;28;20404;-53
2023/12/09 00:36:24;;;;;;;6.17;3.93;;;7.00;45.10;;;;;;5052975;28;20589;-49
2023/12/09 00:38:50;;;;;;;2.60;2.40;;;7.00;45.20;;;;;;5053261;28;20192;-49
2023/12/09 00:41:15;;;;;;;5.47;2.60;;;6.90;45.10;;;;;;5053221;28;20200;-51
2023/12/09 00:43:41;;;;;;;7.17;5.67;;;6.90;45.10;;;;;;5052953;28;20178;-52
2023/12/09 00:46:07;;;;;;;5.13;3.80;;;7.00;45.00;;;;;;5053064;28;20177;-46
2023/12/09 00:48:33;;;;;;;4.63;2.50;;;7.00;45.00;;;;;;5052979;28;20205;-52
2023/12/09 00:50:58;;;;;;;6.23;3.53;;;7.00;45.70;;;;;;5052815;28;20470;-51
2023/12/09 00:53:24;;;;;;;3.07;2.43;;;7.00;44.90;;;;;;5052861;28;20184;-49
2023/12/09 00:55:50;;;;;;;8.30;3.80;;;7.00;44.90;;;;;;5052033;28;20204;-51
2023/12/09 00:58:15;;;;;;;2.93;2.53;;;7.00;44.80;;;;;;5052735;28;20626;-52
2023/12/09 01:00:41;;;;;;;3.60;3.20;;;7.00;45.00;;;;;;5052622;28;20204;-47
2023/12/09 01:03:07;;;;;;;8.13;7.23;;;7.00;45.00;;;;;;5052736;28;20189;-52
2023/12/09 01:05:32;;;;;;;2.03;1.67;;;7.00;44.90;;;;;;5052593;28;20557;-53
2023/12/09 01:07:58;;;;;;;3.33;2.93;;;7.10;45.00;;;;;;5052344;28;20268;-47
2023/12/09 01:10:24;;;;;;;4.47;2.23;;;7.10;44.80;;;;;;5052642;28;20673;-50
2023/12/09 01:12:49;;;;;;;3.23;3.00;;;7.10;44.80;;;;;;5052432;28;20554;-52
2023/12/09 01:15:15;;;;;;;13.43;5.07;;;7.20;44.80;;;;;;5052471;28;20174;-49
2023/12/09 01:17:41;;;;;;;3.43;3.13;;;7.10;44.70;;;;;;5052185;28;20170;-47
2023/12/09 01:20:07;;;;;;;8.03;4.70;;;7.20;44.70;;;;;;5052282;28;20412;-51
2023/12/09 01:22:33;;;;;;;5.85;2.35;;;7.20;44.60;;;;;;5052202;28;20227;-55
2023/12/09 01:24:59;;;;;;;6.83;3.00;;;7.20;44.70;;;;;;5052392;28;20169;-49
2023/12/09 01:27:25;;;;;;;5.13;4.63;;;7.10;44.60;;;;;;5052054;28;20531;-54
2023/12/09 01:29:50;;;;;;;5.30;4.47;;;7.20;44.60;;;;;;5052254;28;20268;-55
2023/12/09 01:32:16;;;;;;;6.30;5.10;;;7.20;44.70;;;;;;5052129;28;20169;-47
2023/12/09 01:34:42;;;;;;;7.27;2.37;;;7.20;44.70;;;;;;5052014;28;20169;-47
2023/12/09 01:37:08;;;;;;;5.57;3.70;;;7.20;44.60;;;;;;5052205;28;20176;-53
2023/12/09 01:39:33;;;;;;;1.77;1.63;;;7.20;44.60;;;;;;5051984;28;20220;-49
2023/12/09 01:42:00;;;;;;;12.67;4.07;;;7.20;44.60;;;;;;5051893;28;20208;-51
2023/12/09 01:44:26;;;;;;;3.72;2.30;;;7.20;44.60;;;;;;5052154;28;20299;-54
2023/12/09 01:46:52;;;;;;;3.77;3.47;;;7.20;44.60;;;;;;5051709;28;20256;-49
2023/12/09 01:49:17;;;;;;;5.70;4.35;;;7.20;44.60;;;;;;5051662;28;20757;-51
2023/12/09 01:51:43;;;;;;;3.43;1.73;;;7.30;44.60;;;;;;5051699;28;20292;-48
2023/12/09 01:54:10;;;;;;;13.27;6.27;;;7.30;44.60;;;;;;5051946;28;20439;-56
2023/12/09 01:56:36;;;;;;;6.90;4.45;;;7.30;44.60;;;;;;5051716;28;20412;-54
2023/12/09 01:59:03;;;;;;;6.35;2.92;;;7.40;44.50;;;;;;5051690;28;20208;-47
2023/12/09 02:01:30;;;;;;;7.75;4.85;;;7.40;44.50;;;;;;5051737;28;20193;-49
2023/12/09 02:03:56;;;;;;;5.00;2.90;;;7.40;44.40;;;;;;5051503;28;20183;-52
2023/12/09 02:06:22;;;;;;;12.23;3.60;;;7.30;44.40;;;;;;5051721;28;20201;-50
2023/12/09 02:08:48;;;;;;;3.93;3.33;;;7.30;44.40;;;;;;5050597;28;20224;-50
2023/12/09 02:11:34;;;;;;;2.50;2.27;;;7.30;44.30;;;;;;5051569;28;20176;-55
2023/12/09 02:14:13;;;;;;;4.78;2.53;;;7.30;44.50;;;;;;5040866;28;20659;-49
2023/12/09 02:16:51;;;;;;;7.85;3.40;;;7.30;44.50;;;;;;5051604;28;20231;-50
2023/12/09 02:19:17;;;;;;;1.73;1.63;;;7.30;44.50;;;;;;5051655;28;20599;-55
2023/12/09 02:22:05;;;;;;;4.35;2.15;;;7.30;44.50;;;;;;5051395;28;20209;-47
2023/12/09 02:24:32;;;;;;;3.92;3.63;;;7.40;44.50;;;;;;5051570;28;20170;-51
2023/12/09 02:27:18;;;;;;;3.55;2.33;;;7.30;44.50;;;;;;5051197;28;20655;-48
2023/12/09 02:30:12;;;;;;;4.22;3.83;;;7.40;44.30;;;;;;5051399;28;20193;-52
2023/12/09 02:32:39;;;;;;;9.75;3.92;;;7.40;44.40;;;;;;5051250;28;20184;-49
2023/12/09 02:35:08;;;;;;;3.45;3.00;;;7.30;44.50;;;;;;5051457;28;20627;-56
2023/12/09 02:37:35;;;;;;;7.32;4.38;;;7.30;44.50;;;;;;5051211;28;20177;-56
2023/12/09 02:40:01;;;;;;;9.55;4.57;;;7.30;44.60;;;;;;5051335;28;20177;-48
2023/12/09 02:42:28;;;;;;;4.47;2.58;;;7.30;44.70;;;;;;5051422;28;20197;-52
2023/12/09 02:44:56;;;;;;;5.35;3.40;;;7.30;44.60;;;;;;5051478;28;20166;-49
2023/12/09 02:47:21;;;;;;;4.38;3.30;;;7.30;44.60;;;;;;5051234;28;20233;-48
2023/12/09 02:49:47;;;;;;;4.80;3.23;;;7.30;44.60;;;;;;5051234;28;20189;-49
2023/12/09 02:52:13;;;;;;;2.03;1.90;;;7.30;44.30;;;;;;5051316;28;20181;-53
2023/12/09 02:54:39;;;;;;;5.80;3.13;;;7.30;44.40;;;;;;5051297;28;20183;-51
2023/12/09 02:57:04;;;;;;;4.40;2.50;;;7.30;44.30;;;;;;5051194;28;20808;-51
2023/12/09 02:59:30;;;;;;;7.63;4.47;;;7.30;44.30;;;;;;5051140;28;20220;-49
2023/12/09 03:01:57;;;;;;;4.88;4.45;;;7.30;44.40;;;;;;5051284;28;20288;-52
2023/12/09 03:04:22;;;;;;;7.97;3.00;;;7.30;44.40;;;;;;5051132;28;20182;-54
2023/12/09 03:06:48;;;;;;;5.70;3.97;;;7.20;44.30;;;;;;5050898;28;20176;-50
2023/12/09 03:09:14;;;;;;;16.23;4.53;;;7.30;44.40;;;;;;5051112;28;20193;-50
2023/12/09 03:11:40;;;;;;;3.00;2.70;;;7.30;44.30;;;;;;5051030;28;20204;-55
2023/12/09 03:14:05;;;;;;;8.30;2.43;;;7.20;44.30;;;;;;5051158;28;20178;-50
2023/12/09 03:16:31;;;;;;;4.13;3.73;;;7.20;44.40;;;;;;5050957;28;20204;-51
2023/12/09 03:18:57;;;;;;;5.80;2.87;;;7.20;44.30;;;;;;5051593;28;20701;-54
2023/12/09 03:21:22;;;;;;;3.07;2.67;;;7.20;44.30;;;;;;5054573;28;20208;-51
2023/12/09 03:23:48;;;;;;;5.80;3.57;;;7.20;44.30;;;;;;5054513;28;20256;-57
2023/12/09 03:26:19;;;;;;;3.90;3.60;;;7.20;44.40;;;;;;5054325;28;20635;-56
2023/12/09 03:28:45;;;;;;;4.05;2.85;;;7.10;44.40;;;;;;5054473;28;20744;-49
2023/12/09 03:31:15;;;;;;;8.00;3.28;;;7.10;44.40;;;;;;5054552;28;20204;-53
2023/12/09 03:33:42;;;;;;;3.40;2.03;;;7.10;44.40;;;;;;5054277;28;20181;-54
2023/12/09 03:36:09;;;;;;;5.00;3.58;;;7.10;44.60;;;;;;5054240;28;20266;-50
2023/12/09 03:38:35;;;;;;;7.70;3.17;;;7.10;44.50;;;;;;5054331;28;20275;-53
2023/12/09 03:41:05;;;;;;;10.85;5.35;;;7.10;44.70;;;;;;5054109;28;20197;-54
2023/12/09 03:43:31;;;;;;;3.17;2.92;;;7.10;44.70;;;;;;5054133;28;20185;-51
2023/12/09 03:45:58;;;;;;;3.33;2.83;;;7.10;44.60;;;;;;5053886;28;20704;-52
2023/12/09 03:48:24;;;;;;;7.00;2.30;;;7.10;44.60;;;;;;5054075;28;20273;-55
2023/12/09 03:50:49;;;;;;;4.30;2.15;;;7.20;44.50;;;;;;5053943;28;20281;-53
2023/12/09 03:53:15;;;;;;;3.40;3.17;;;7.20;44.20;;;;;;5053977;28;20698;-51
2023/12/09 03:55:41;;;;;;;7.07;5.60;;;7.20;44.20;;;;;;5053867;28;20177;-49
2023/12/09 03:58:08;;;;;;;3.07;2.77;;;7.10;44.20;;;;;;5053614;28;20212;-53
2023/12/09 04:00:34;;;;;;;5.00;4.13;;;7.10;44.40;;;;;;5053783;28;20640;-57
2023/12/09 04:03:00;;;;;;;13.48;4.15;;;7.10;44.50;;;;;;5053979;28;20243;-52
2023/12/09 04:05:26;;;;;;;11.77;4.40;;;7.00;44.50;;;;;;5053840;28;20586;-51
2023/12/09 04:07:52;;;;;;;13.97;3.00;;;7.00;44.60;;;;;;5053465;28;20427;-58
2023/12/09 04:10:17;;;;;;;8.00;5.03;;;7.00;44.50;;;;;;5053674;28;20169;-57
2023/12/09 04:12:44;;;;;;;7.37;5.77;;;7.00;44.50;;;;;;5053461;28;20181;-50
2023/12/09 04:15:11;;;;;;;2.58;1.33;;;7.00;44.60;;;;;;5053501;28;20420;-57
2023/12/09 04:17:37;;;;;;;7.43;2.70;;;7.00;44.50;;;;;;5053530;28;20184;-57
2023/12/09 04:20:08;;;;;;;2.78;2.55;;;7.10;44.70;;;;;;5053595;28;20204;-50
2023/12/09 04:22:36;;;;;;;3.63;2.63;;;7.10;44.30;;;;;;5053511;28;20566;-57
2023/12/09 04:25:04;;;;;;;4.75;2.13;;;7.00;44.40;;;;;;5053338;28;20245;-57
2023/12/09 04:27:31;;;;;;;3.28;2.35;;;7.00;44.30;;;;;;5053185;28;20181;-50
2023/12/09 04:29:58;;;;;;;2.28;2.13;;;7.00;44.50;;;;;;5052920;28;20178;-48
2023/12/09 04:32:23;;;;;;;7.13;4.50;;;7.10;44.50;;;;;;5052814;28;20178;-54
2023/12/09 04:34:49;;;;;;;2.57;2.40;;;7.10;44.30;;;;;;5053318;28;20284;-50
2023/12/09 04:37:15;;;;;;;3.43;1.47;;;7.10;44.40;;;;;;5053089;28;20205;-55
2023/12/09 04:39:40;;;;;;;8.03;3.27;;;7.10;44.30;;;;;;5053002;28;20513;-49
2023/12/09 04:42:06;;;;;;;5.03;4.40;;;7.00;44.20;;;;;;5052968;28;20677;-50
2023/12/09 04:44:32;;;;;;;8.83;4.70;;;7.10;44.40;;;;;;5053106;28;20180;-55
2023/12/09 04:46:58;;;;;;;3.47;3.17;;;7.10;44.40;;;;;;5052829;28;20170;-56
2023/12/09 04:49:23;;;;;;;3.40;3.13;;;7.10;45.10;;;;;;5053048;28;20196;-51
2023/12/09 04:51:49;;;;;;;4.27;2.90;;;7.10;44.40;;;;;;5052986;28;20679;-55
2023/12/09 04:54:15;;;;;;;3.33;2.50;;;7.10;44.30;;;;;;5052850;28;20181;-54
2023/12/09 04:56:40;;;;;;;3.87;2.37;;;7.10;44.30;;;;;;5052562;28;20177;-50
2023/12/09 04:59:06;;;;;;;9.53;4.17;;;7.20;44.30;;;;;;5052631;28;20798;-52
2023/12/09 05:01:32;;;;;;;4.97;4.57;;;7.10;44.20;;;;;;5052916;28;20284;-51
2023/12/09 05:03:58;;;;;;;3.07;2.77;;;7.10;44.20;;;;;;5052673;28;20177;-50
2023/12/09 05:06:23;;;;;;;11.63;3.73;;;7.10;44.30;;;;;;5052483;28;20200;-53
2023/12/09 05:08:50;;;;;;;13.50;3.50;;;7.20;44.20;;;;;;5052490;28;20200;-50
2023/12/09 05:11:15;;;;;;;4.25;3.85;;;7.20;44.20;;;;;;5052425;28;20180;-52
2023/12/09 05:13:41;;;;;;;5.20;3.20;;;7.20;44.30;;;;;;5052320;28;20197;-50
2023/12/09 05:16:07;;;;;;;3.43;2.87;;;7.20;44.30;;;;;;5052558;28;20264;-56
2023/12/09 05:18:34;;;;;;;6.07;4.30;;;7.20;45.00;;;;;;5052431;28;20605;-56
2023/12/09 05:21:00;;;;;;;12.38;6.22;;;7.20;44.20;;;;;;5052173;28;20470;-50
2023/12/09 05:23:26;;;;;;;3.10;2.90;;;7.30;44.20;;;;;;5052317;28;20173;-57
2023/12/09 05:25:52;;;;;;;26.83;5.33;;;7.30;44.00;;;;;;5052087;28;20184;-56
2023/12/09 05:28:18;;;;;;;5.00;4.60;;;7.30;43.90;;;;;;5052134;28;20189;-50
2023/12/09 05:30:43;;;;;;;4.00;2.92;;;7.20;43.90;;;;;;5052166;28;20423;-50
2023/12/09 05:33:09;;;;;;;9.23;5.07;;;7.30;43.90;;;;;;5052280;28;20177;-56
2023/12/09 05:35:35;;;;;;;3.87;1.90;;;7.20;43.90;;;;;;5052210;28;20424;-56
2023/12/09 05:38:01;;;;;;;6.93;3.25;;;7.30;43.90;;;;;;5051789;28;20243;-51
2023/12/09 05:40:27;;;;;;;7.60;2.63;;;7.30;44.00;;;;;;5051892;28;20185;-49
2023/12/09 05:42:53;;;;;;;6.13;5.00;;;7.20;43.60;;;;;;5051709;28;20415;-56
2023/12/09 05:45:18;;;;;;;11.73;2.73;;;7.20;43.80;;;;;;5052065;28;20705;-50
2023/12/09 05:47:44;;;;;;;5.23;3.90;;;7.20;43.80;;;;;;5051654;28;20189;-50
2023/12/09 05:50:10;;;;;;;3.73;3.43;;;7.20;43.80;;;;;;5051997;28;20180;-57
2023/12/09 05:52:36;;;;;;;8.60;3.37;;;7.20;43.90;;;;;;5051905;28;20256;-51
2023/12/09 05:55:02;;;;;;;3.87;3.10;;;7.20;43.90;;;;;;5051797;28;20746;-50
2023/12/09 05:57:27;;;;;;;3.60;3.30;;;7.20;44.00;;;;;;5051480;28;20407;-54
2023/12/09 05:59:53;;;;;;;10.60;5.50;;;7.20;44.00;;;;;;5051698;28;20449;-53
2023/12/09 06:02:19;;;;;;;3.13;2.00;;;7.20;43.90;;;;;;5051704;28;20205;-51
2023/12/09 06:04:44;;;;;;;28.73;6.27;;;7.20;43.90;;;;;;5051900;28;20560;-51
2023/12/09 06:07:10;;;;;;;12.20;5.93;;;7.20;43.90;;;;;;5051580;28;20264;-51
2023/12/09 06:09:36;;;;;;;8.73;3.00;;;7.20;43.90;;;;;;5051605;28;20245;-57
2023/12/09 06:12:02;;;;;;;4.23;3.93;;;7.10;44.10;;;;;;5051499;28;20512;-56
2023/12/09 06:14:27;;;;;;;3.83;2.73;;;7.10;44.20;;;;;;5051630;28;20227;-51
2023/12/09 06:16:53;;;;;;;6.33;4.53;;;7.10;44.30;;;;;;5051411;28;20518;-56
2023/12/09 06:19:19;;;;;;;4.37;4.07;;;7.10;44.20;;;;;;5051727;28;20189;-56
2023/12/09 06:21:44;;;;;;;3.53;2.67;;;7.10;44.10;;;;;;5051390;28;20188;-50
2023/12/09 06:24:13;;;;;;;8.90;3.90;;;7.10;44.00;;;;;;5051607;28;20550;-50
2023/12/09 06:26:43;;;;;;;1.92;1.83;;;7.10;44.00;;;;;;5051612;28;20260;-53
2023/12/09 06:29:11;;;;;;;3.20;2.75;;;7.10;43.90;;;;;;5051536;28;20204;-50
2023/12/09 06:31:37;;;;;;;5.75;3.58;;;7.10;43.90;;;;;;5051589;28;20641;-48
2023/12/09 06:34:03;;;;;;;5.75;3.63;;;7.10;44.00;;;;;;5051425;28;20197;-51
2023/12/09 06:36:29;;;;;;;4.73;3.70;;;7.10;43.90;;;;;;5051283;28;20184;-52
2023/12/09 06:38:55;;;;;;;4.50;3.83;;;7.10;44.10;;;;;;5051213;28;20197;-50
2023/12/09 06:41:20;;;;;;;7.47;2.63;;;7.00;44.20;;;;;;5051429;28;20228;-51
2023/12/09 06:43:46;;;;;;;4.50;2.00;;;7.10;44.30;;;;;;5051570;28;20181;-48
2023/12/09 06:46:12;;;;;;;6.40;4.53;;;7.00;44.20;;;;;;5051380;28;20169;-48
2023/12/09 06:48:41;;;;;;;1.87;1.60;;;7.00;44.10;;;;;;5051279;28;20189;-51
2023/12/09 06:51:14;;;;;;;4.03;3.10;;;7.00;44.20;;;;;;5051417;28;20428;-48
2023/12/09 06:53:40;;;;;;;15.63;5.47;;;7.00;44.20;;;;;;5051493;28;20185;-49
2023/12/09 06:56:06;;;;;;;3.83;2.60;;;7.00;44.30;;;;;;5054924;28;20639;-55
2023/12/09 06:58:32;;;;;;;4.43;3.40;;;7.00;44.20;;;;;;5054508;28;20212;-48
2023/12/09 07:00:58;;;;;;;3.57;3.37;;;7.00;44.30;;;;;;5053704;28;20250;-46
2023/12/09 07:03:23;;;;;;;3.10;1.40;;;7.00;44.30;;;;;;5053773;28;20592;-58
2023/12/09 07:05:49;;;;;;;2.47;2.00;;;7.00;44.30;;;;;;5053381;28;20181;-56
2023/12/09 07:08:15;;;;;;;3.60;3.30;;;7.00;44.50;;;;;;5053489;28;20193;-47
2023/12/09 07:10:46;;;;;;;5.60;2.28;;;7.00;44.60;;;;;;5053562;28;20234;-57
2023/12/09 07:13:11;;;;;;;8.90;4.03;;;7.00;44.70;;;;;;5053664;28;20260;-48
2023/12/09 07:15:37;;;;;;;6.57;5.30;;;7.00;44.70;;;;;;5053657;28;20307;-55
2023/12/09 07:18:04;;;;;;;6.70;3.93;;;7.00;44.70;;;;;;5053250;28;20189;-55
2023/12/09 07:20:30;;;;;;;2.63;2.42;;;7.00;44.70;;;;;;5053197;28;20170;-48
2023/12/09 07:22:55;;;;;;;13.03;4.97;;;7.50;44.70;;;;;;5053379;28;20184;-51
2023/12/09 07:25:23;;;;;;;4.73;3.20;;;7.10;44.50;;;;;;5053407;28;20462;-54
2023/12/09 07:27:50;;;;;;;3.72;1.90;;;7.20;44.50;;;;;;5035736;28;20194;-49
2023/12/09 07:30:16;;;;;;;2.85;2.58;;;7.10;44.30;;;;;;5053357;28;20603;-55
2023/12/09 07:32:42;;;;;;;7.80;5.53;;;7.20;44.30;;;;;;5053221;28;20678;-51
2023/12/09 07:35:08;;;;;;;2.78;2.15;;;7.10;44.50;;;;;;5053159;28;20816;-49
2023/12/09 07:37:34;;;;;;;2.10;1.90;;;7.20;44.50;;;;;;5052992;28;20212;-52
2023/12/09 07:40:00;;;;;;;4.67;4.23;;;7.20;44.50;;;;;;5053142;28;20205;-48
2023/12/09 07:42:25;;;;;;;8.50;4.47;;;7.10;44.60;;;;;;5053008;28;20268;-53
2023/12/09 07:44:51;;;;;;;9.37;4.37;;;7.10;44.50;;;;;;5053194;28;20178;-54
2023/12/09 07:47:17;;;;;;;3.97;3.57;;;7.10;44.60;;;;;;5052972;28;20172;-50
2023/12/09 07:49:42;;;;;;;23.93;5.53;;;7.10;44.70;;;;;;5052755;28;20267;-48
2023/12/09 07:52:08;;;;;;;4.20;2.70;;;7.20;44.60;;;;;;5053117;28;20751;-55
2023/12/09 07:54:34;;;;;;;12.57;3.67;;;7.20;44.50;;;;;;5053046;28;20181;-53
2023/12/09 07:57:00;;;;;;;3.77;3.40;;;7.20;44.60;;;;;;5052715;28;20191;-51
2023/12/09 07:59:25;;;;;;;9.53;5.47;;;7.20;44.60;;;;;;5010937;28;1220693;-51
2023/12/09 08:01:51;;;;;;;9.40;3.40;;;7.20;44.70;;;;;;5053780;28;20204;-58
2023/12/09 08:04:17;;;;;;;9.07;4.90;;;7.30;44.60;;;;;;5053760;28;20162;-57
2023/12/09 08:06:42;;;;;;;6.23;3.43;;;7.30;44.50;;;;;;5053547;28;20166;-50
2023/12/09 08:09:09;;;;;;;4.93;3.00;;;7.30;44.60;;;;;;5053721;28;20432;-53
2023/12/09 08:11:35;;;;;;;3.33;2.97;;;7.40;44.70;;;;;;5053768;28;20234;-57
2023/12/09 08:14:01;;;;;;;4.03;1.70;;;7.40;44.60;;;;;;5053622;28;20181;-52
2023/12/09 08:16:27;;;;;;;3.33;3.13;;;7.40;44.60;;;;;;5053568;28;20470;-49
2023/12/09 08:18:53;;;;;;;5.70;2.70;;;7.50;44.80;;;;;;5053580;28;20205;-57
2023/12/09 08:21:19;;;;;;;3.95;3.03;;;7.50;44.70;;;;;;5053649;28;20467;-57
2023/12/09 08:23:45;;;;;;;10.68;5.90;;;7.60;44.60;;;;;;5053325;28;20547;-51
2023/12/09 08:26:17;;;;;;;2.60;2.27;;;7.70;44.50;;;;;;5053404;28;20181;-50
2023/12/09 08:28:43;;;;;;;3.90;2.40;;;7.70;44.20;;;;;;5019368;28;20532;-54
2023/12/09 08:31:09;;;;;;;5.43;3.50;;;7.70;44.30;;;;;;5053422;28;20213;-51
2023/12/09 08:33:35;;;;;;;2.17;2.07;;;7.80;44.30;;;;;;5053167;28;20465;-53
2023/12/09 08:36:00;;;;;;;3.07;2.87;;;7.80;44.20;;;;;;5053037;28;20185;-55
2023/12/09 08:38:26;;;;;;;3.80;3.40;;;7.80;44.10;;;;;;5053168;28;20573;-52
2023/12/09 08:40:53;;;;;;;8.63;3.70;;;7.90;44.10;;;;;;5053185;28;20232;-57
2023/12/09 08:43:18;;;;;;;4.55;3.28;;;7.90;44.10;;;;;;5053176;28;20301;-50
2023/12/09 08:45:44;;;;;;;2.70;1.93;;;7.90;44.00;;;;;;5053104;28;20699;-54
2023/12/09 08:48:10;;;;;;;3.17;2.67;;;7.90;44.10;;;;;;5052747;28;20197;-52
2023/12/09 08:50:36;;;;;;;2.17;1.63;;;8.00;44.50;;;;;;5053022;28;20173;-51
2023/12/09 08:53:02;;;;;;;6.83;4.33;;;7.90;44.00;;;;;;5052830;28;20461;-56
2023/12/09 08:55:28;;;;;;;3.70;3.50;;;7.80;43.80;;;;;;5052873;28;20172;-57
2023/12/09 08:57:54;;;;;;;1.20;1.07;;;7.70;44.20;;;;;;5052414;28;20221;-51
2023/12/09 09:00:20;;;;;;;2.10;1.90;;;7.80;44.40;;;;;;5052731;28;20448;-51
2023/12/09 09:02:49;;;;;;;6.43;3.83;;;7.90;44.30;;;;;;5052725;28;20605;-54
2023/12/09 09:05:15;;;;;;;6.45;5.35;;;7.90;44.30;;;;;;5052924;28;20177;-47
2023/12/09 09:07:44;;;;;;;3.27;2.50;;;8.00;44.00;;;;;;5052505;28;20809;-55
2023/12/09 09:10:09;;;;;;;14.43;7.10;;;8.00;43.70;;;;;;5052624;28;20407;-53
2023/12/09 09:12:35;;;;;;;2.90;1.37;;;8.00;43.40;;;;;;5052503;28;20182;-48
2023/12/09 09:15:01;;;;;;;8.93;3.40;;;8.00;43.60;;;;;;5052568;28;20260;-50
2023/12/09 09:17:28;;;;;;;4.10;3.03;;;8.00;43.70;;;;;;5051859;28;20185;-51
2023/12/09 09:19:54;;;;;;;4.32;3.72;;;8.00;43.80;;;;;;5052356;28;20667;-47
2023/12/09 09:22:20;;;;;;;2.77;2.50;;;8.10;44.00;;;;;;5052452;28;20302;-52
2023/12/09 09:24:47;;;;;;;3.03;2.83;;;8.10;43.80;;;;;;5052180;28;20180;-48
2023/12/09 09:27:13;;;;;;;3.47;2.65;;;8.20;43.30;;;;;;5052115;28;20177;-47
2023/12/09 09:29:39;;;;;;;4.87;4.47;;;8.10;43.60;;;;;;5052100;28;20192;-48
2023/12/09 09:32:06;;;;;;;5.57;5.20;;;8.10;43.30;;;;;;5052357;28;20443;-54
2023/12/09 09:34:31;;;;;;;4.13;3.72;;;8.10;43.50;;;;;;5052373;28;20200;-50
2023/12/09 09:36:57;;;;;;;3.50;3.30;;;8.20;43.40;;;;;;5052008;28;20181;-48
2023/12/09 09:39:23;;;;;;;5.47;3.30;;;8.20;43.60;;;;;;5052148;28;20613;-55
2023/12/09 09:42:18;;;;;;;8.80;3.77;;;8.20;44.20;;;;;;5051910;28;20196;-49
2023/12/09 09:45:05;;;;;;;8.75;5.18;;;8.30;43.60;;;;;;5052289;28;20181;-55
2023/12/09 09:47:36;;;;;;;11.25;5.43;;;8.30;43.40;;;;;;5051713;28;20174;-53
2023/12/09 09:50:12;;;;;;;6.75;2.50;;;8.30;43.40;;;;;;5052044;28;20201;-49
2023/12/09 09:52:41;;;;;;;3.75;3.13;;;8.40;43.20;;;;;;5051852;28;20214;-47
2023/12/09 09:55:08;;;;;;;4.47;3.58;;;8.40;43.40;;;;;;5051896;28;20643;-50
2023/12/09 09:57:37;;;;;;;4.72;4.30;;;8.40;43.20;;;;;;5051578;28;20181;-53
2023/12/09 10:00:12;;;;;;;5.22;1.90;;;8.40;43.20;;;;;;5051752;28;20528;-49
2023/12/09 10:02:45;;;;;;;10.63;2.95;;;8.40;43.10;;;;;;5051747;28;20215;-55
2023/12/09 10:05:11;;;;;;;4.07;2.70;;;8.50;43.10;;;;;;5051752;28;20187;-54
2023/12/09 10:07:37;;;;;;;5.97;3.15;;;8.60;43.00;;;;;;5051712;28;20197;-48
2023/12/09 10:10:05;;;;;;;8.50;6.30;;;8.60;42.60;;;;;;5051755;28;20177;-55
2023/12/09 10:12:30;;;;;;;3.97;3.67;;;8.60;42.40;;;;;;5051657;28;20208;-49
2023/12/09 10:14:56;;;;;;;5.23;3.30;;;8.70;42.10;;;;;;5051503;28;20220;-56
2023/12/09 10:17:23;;;;;;;9.10;5.60;;;8.70;42.70;;;;;;5051555;28;20173;-55
2023/12/09 10:19:48;;;;;;;5.30;4.30;;;8.70;42.70;;;;;;5051458;28;20195;-48
2023/12/09 10:22:14;;;;;;;7.83;4.30;;;8.80;41.90;;;;;;5051715;28;20197;-54
2023/12/09 10:24:51;;;;;;;6.47;3.90;;;8.80;42.50;;;;;;5051702;28;20165;-55
2023/12/09 10:27:24;;;;;;;15.55;5.75;;;8.70;42.30;;;;;;5051390;28;20180;-50
2023/12/09 10:29:54;;;;;;;3.75;2.60;;;8.70;41.90;;;;;;5053773;28;20172;-52
2023/12/09 10:32:20;;;;;;;5.13;4.65;;;8.70;42.20;;;;;;5055572;28;20747;-55
2023/12/09 10:34:48;;;;;;;6.35;3.03;;;8.70;42.60;;;;;;5055479;28;20184;-51
2023/12/09 10:37:16;;;;;;;4.72;2.92;;;8.70;42.50;;;;;;5055409;28;20192;-50
2023/12/09 10:39:45;;;;;;;6.97;5.03;;;8.70;43.20;;;;;;5055446;28;20193;-52
2023/12/09 10:42:12;;;;;;;12.18;3.63;;;8.70;42.60;;;;;;5055296;28;20634;-50
2023/12/09 10:44:38;;;;;;;6.97;4.15;;;8.60;42.50;;;;;;5055259;28;20173;-51
2023/12/09 10:47:04;;;;;;;11.00;4.07;;;8.70;43.00;;;;;;5055138;28;20197;-57
2023/12/09 10:49:31;;;;;;;14.32;4.75;;;8.70;43.10;;;;;;5055214;28;20432;-57
2023/12/09 10:51:57;;;;;;;5.57;5.07;;;8.80;42.60;;;;;;5055116;28;20651;-49
2023/12/09 10:54:22;;;;;;;24.87;3.47;;;8.90;42.20;;;;;;5055232;28;20180;-51
2023/12/09 10:56:49;;;;;;;1.83;1.67;;;8.90;42.60;;;;;;5054958;28;20419;-55
2023/12/09 10:59:17;;;;;;;8.77;2.20;;;8.90;42.80;;;;;;5054890;28;20924;-52
2023/12/09 11:01:45;;;;;;;19.73;2.72;;;8.90;42.30;;;;;;5055210;28;20205;-50
2023/12/09 11:04:12;;;;;;;11.88;4.75;;;8.90;42.30;;;;;;5055185;28;20177;-56
2023/12/09 11:06:39;;;;;;;10.30;7.13;;;8.80;42.60;;;;;;5054723;28;20242;-50
2023/12/09 11:09:07;;;;;;;2.78;2.58;;;8.70;42.50;;;;;;5054838;28;20251;-51
2023/12/09 11:11:34;;;;;;;12.25;3.28;;;8.70;42.70;;;;;;5054843;28;20180;-57
2023/12/09 11:14:00;;;;;;;8.02;2.63;;;8.80;42.70;;;;;;5054731;28;20628;-53
2023/12/09 11:16:28;;;;;;;6.63;4.27;;;8.80;42.60;;;;;;5054843;28;20189;-50
2023/12/09 11:18:56;;;;;;;6.43;2.53;;;8.90;42.80;;;;;;5054541;28;20695;-52
2023/12/09 11:21:26;;;;;;;8.70;3.80;;;8.90;42.60;;;;;;5054531;28;20204;-56
2023/12/09 11:23:57;;;;;;;6.22;3.33;;;8.90;42.30;;;;;;5054622;28;20204;-50
2023/12/09 11:26:33;;;;;;;5.72;3.35;;;8.90;42.60;;;;;;5054476;28;20245;-58
2023/12/09 11:29:06;;;;;;;11.18;4.32;;;9.00;42.90;;;;;;5054696;28;20219;-51
2023/12/09 11:31:34;;;;;;;7.45;4.05;;;9.10;42.30;;;;;;5054651;28;20184;-49
2023/12/09 11:34:00;;;;;;;2.83;2.60;;;9.10;42.30;;;;;;5054458;28;20635;-58
2023/12/09 11:36:29;;;;;;;8.95;3.95;;;9.00;42.10;;;;;;5054346;28;20204;-53
2023/12/09 11:38:57;;;;;;;4.72;3.17;;;9.00;42.60;;;;;;5054139;28;20200;-50
2023/12/09 11:41:25;;;;;;;13.38;7.20;;;9.10;42.70;;;;;;5054007;28;20215;-58
2023/12/09 11:43:51;;;;;;;3.40;3.10;;;9.10;42.40;;;;;;5054316;28;20328;-59
2023/12/09 11:46:17;;;;;;;9.90;3.67;;;9.20;42.60;;;;;;5054050;28;20204;-50
2023/12/09 11:48:44;;;;;;;7.75;5.10;;;9.30;42.40;;;;;;5054192;28;20612;-55
2023/12/09 11:51:10;;;;;;;7.28;2.83;;;9.40;42.20;;;;;;5054027;28;20549;-48
2023/12/09 11:53:35;;;;;;;4.90;3.27;;;9.40;42.50;;;;;;5053995;28;20265;-50
2023/12/09 11:56:01;;;;;;;5.47;3.80;;;9.60;42.50;;;;;;5053916;28;20177;-55
2023/12/09 11:58:27;;;;;;;7.50;3.10;;;9.70;42.20;;;;;;5053736;28;20235;-48
2023/12/09 12:00:53;;;;;;;5.30;3.33;;;9.80;41.80;;;;;;5054012;28;20411;-49
2023/12/09 12:03:19;;;;;;;3.97;3.03;;;9.80;41.40;;;;;;5054037;28;20173;-53
2023/12/09 12:05:45;;;;;;;7.13;4.50;;;9.90;41.50;;;;;;5053870;28;20227;-50
2023/12/09 12:08:15;;;;;;;3.87;2.50;;;10.00;41.40;;;;;;5053498;28;20299;-49
2023/12/09 12:10:41;;;;;;;9.98;3.22;;;10.10;41.70;;;;;;5054014;28;20178;-56
2023/12/09 12:13:07;;;;;;;6.60;2.88;;;10.50;42.60;;;;;;5053739;28;20638;-49
2023/12/09 12:15:34;;;;;;;8.50;4.32;;;11.00;41.90;;;;;;5053680;28;20205;-49
2023/12/09 12:18:03;;;;;;;5.40;2.75;;;11.60;40.10;;;;;;5053380;28;20563;-51
2023/12/09 12:20:28;;;;;;;10.82;4.75;;;12.50;39.40;;;;;;5053506;28;20169;-53
2023/12/09 12:22:54;;;;;;;9.50;3.77;;;13.40;37.40;;;;;;5053422;28;20263;-49
2023/12/09 12:25:24;;;;;;;16.07;6.50;;;14.10;34.50;;;;;;5053797;28;20170;-50
2023/12/09 12:27:50;;;;;;;6.78;3.47;;;14.70;35.10;;;;;;5053241;28;20528;-57
2023/12/09 12:30:17;;;;;;;5.77;3.63;;;15.40;32.40;;;;;;5053520;28;20170;-56
2023/12/09 12:32:42;;;;;;;4.68;2.15;;;15.90;31.20;;;;;;5053250;28;20181;-49
2023/12/09 12:35:09;;;;;;;5.63;3.87;;;16.40;30.80;;;;;;5053230;28;20177;-48
2023/12/09 12:37:35;;;;;;;10.23;3.72;;;16.70;29.60;;;;;;5052923;28;20419;-57
2023/12/09 12:40:01;;;;;;;5.95;3.00;;;16.10;29.70;;;;;;5053173;28;20189;-53
2023/12/09 12:42:27;;;;;;;6.75;4.57;;;15.30;29.60;;;;;;5052994;28;20201;-48
2023/12/09 12:44:53;;;;;;;4.93;3.57;;;14.40;30.90;;;;;;5035166;28;20264;-51
2023/12/09 12:47:19;;;;;;;6.13;2.80;;;14.00;31.50;;;;;;5052867;28;20404;-49
2023/12/09 12:49:44;;;;;;;21.00;4.10;;;14.10;32.40;;;;;;5052816;28;20232;-52
2023/12/09 12:52:10;;;;;;;8.60;5.00;;;14.20;32.30;;;;;;5052038;28;20180;-54
2023/12/09 12:54:36;;;;;;;7.50;3.53;;;14.00;31.50;;;;;;5052944;28;20169;-55